SBOSBO ACC / DGAA
Speedbird OnlineSpeedbird Online ACC / DGAA

Kotoka International Airport
12:45 30.9°C

Location Accra, Ghana
Latitude: 5.605189800262451
Longitude: -0.16678600013256073
Web Wikipedia
Altitude 62 Meter / 205 Feet
Distance 5,105 KM / 3,172 Miles
from London.
Time Zone UTC 0 hours (Africa/Accra)
Codes IATA: ACC
ICAO: DGAA
Currency £1 equals GHS 15.44
Runways
RunwayLength (m)Surface
033403Asphalt
213403Asphalt
Radio
TypeDescriptionFrequency
APPACCRA APP119.5
GNDACCRA GND121.9
TWRACCRA TWR119.1
Live ATC
METAR DGAA 311100Z VRB02KT 9999 SCT028 BKN034 31/24 Q1012 NOSIG
TAF TAF DGAA 311100Z 3112/0118 19010KT 9999 BKN020 PROB30 TEMPO 3114/3118 TS FEW030CB TEMPO 0106/0109 5000 BR
Weather As Of 31 Jan 2023 12:45
Description Overcast clouds
Wind 17 km/h from South (174°)
Cloud Cover 100%
Precipitation Rain: none, Snow: none
Sunrise 06:17
Sunset 18:10
Lounges Adinkra Lounge, Terminal 3
Rotations During the last 90 days there were
86 flights from LHR
86 flights to LHR



Support Speedbird Online

© 2017-2023 Speedbird Online